Terminal Aerodrome Forecast
Issued by NWS

Home | Current Version | Previous Version | Text Only | Print | Product List | Glossary On
Versions: 1 2 3 4 5 6 7 8 9 10 11 12 13 14 15
000
FTUS45 KTFX 280500
TAFBZN
TAF
KBZN 280530Z 2806/0106 32008KT P6SM SCT020 OVC040
     FM281100 VRB05KT P6SM VCSH SCT015 OVC030
     FM281800 VRB05KT P6SM SCT030 BKN070
     FM010200 15005KT P6SM SCT080=

USA.gov is the U.S. government's official web portal to all federal, state and local government web resources and services.